createdAt,value
2022-08-03T00:00:29.094Z,1.40
2022-08-03T00:02:55.898Z,1.08
2022-08-03T00:05:22.607Z,1.10
2022-08-03T00:07:49.581Z,1.23
2022-08-03T00:10:17.051Z,1.35
2022-08-03T00:12:43.615Z,1.67
2022-08-03T00:15:15.104Z,1.65
2022-08-03T00:17:53.251Z,1.70
2022-08-03T00:20:21.907Z,1.38
2022-08-03T00:22:51.815Z,1.42
2022-08-03T00:25:18.411Z,1.42
2022-08-03T00:27:48.438Z,1.35
2022-08-03T00:30:22.000Z,1.50
2022-08-03T00:32:53.368Z,1.55
2022-08-03T00:35:37.166Z,1.30
2022-08-03T00:38:07.187Z,1.25
2022-08-03T00:40:34.850Z,1.20
2022-08-03T00:45:34.941Z,1.30
2022-08-03T00:48:03.630Z,1.30
2022-08-03T00:50:34.615Z,1.70
2022-08-03T00:53:03.117Z,1.15
2022-08-03T00:55:29.680Z,1.77
2022-08-03T00:57:57.275Z,1.70
2022-08-03T01:02:54.427Z,1.40
2022-08-03T01:05:21.819Z,1.48
2022-08-03T01:08:03.539Z,1.60
2022-08-03T01:10:50.333Z,1.45
2022-08-03T01:14:02.376Z,1.42
2022-08-03T01:16:37.556Z,1.70
2022-08-03T01:19:21.936Z,1.42
2022-08-03T01:22:18.452Z,1.70
2022-08-03T01:25:02.920Z,1.85
2022-08-03T01:27:43.343Z,1.85
2022-08-03T01:30:12.502Z,1.50
2022-08-03T01:32:53.532Z,1.75
2022-08-03T01:35:35.479Z,1.77
2022-08-03T01:38:11.350Z,1.90
2022-08-03T01:40:42.660Z,2.00
2022-08-03T01:43:12.727Z,1.70
2022-08-03T01:45:41.380Z,2.05
2022-08-03T01:48:09.252Z,1.70
2022-08-03T01:50:36.377Z,2.10
2022-08-03T01:53:03.580Z,2.00
2022-08-03T01:55:33.293Z,2.47
2022-08-03T01:58:05.764Z,1.77
2022-08-03T02:00:35.644Z,2.50
2022-08-03T02:03:05.844Z,2.60
2022-08-03T02:05:36.315Z,2.08
2022-08-03T02:08:05.141Z,2.20
2022-08-03T02:10:35.457Z,2.55
2022-08-03T02:13:04.498Z,2.38
2022-08-03T02:15:35.955Z,1.95
2022-08-03T02:18:05.497Z,1.92
2022-08-03T02:20:36.223Z,2.60
2022-08-03T02:23:03.462Z,2.30
2022-08-03T02:25:32.256Z,2.30
2022-08-03T02:28:06.494Z,2.20
2022-08-03T02:30:38.963Z,2.30
2022-08-03T02:33:10.875Z,3.40
2022-08-03T02:35:39.965Z,2.15
2022-08-03T02:38:10.435Z,2.45
2022-08-03T02:40:39.797Z,2.30
2022-08-03T02:43:11.908Z,2.15
2022-08-03T02:45:45.671Z,2.00
2022-08-03T02:48:17.453Z,2.33
2022-08-03T02:50:45.775Z,2.50
2022-08-03T02:53:16.631Z,1.73
2022-08-03T02:55:45.821Z,2.45
2022-08-03T02:58:16.888Z,1.90
2022-08-03T03:00:46.373Z,1.88
2022-08-03T03:03:15.779Z,2.25
2022-08-03T03:05:53.146Z,2.53
2022-08-03T03:08:28.844Z,2.90
2022-08-03T03:11:01.290Z,2.88
2022-08-03T03:13:32.360Z,2.17
2022-08-03T03:16:04.779Z,2.40
2022-08-03T03:18:36.690Z,2.60
2022-08-03T03:21:04.429Z,2.28
2022-08-03T03:25:59.800Z,2.65
2022-08-03T03:28:26.608Z,2.55
2022-08-03T03:30:53.650Z,2.73
2022-08-03T03:33:21.818Z,2.20
2022-08-03T03:35:49.003Z,2.92
2022-08-03T03:38:15.700Z,3.10
2022-08-03T03:40:45.444Z,3.47
2022-08-03T03:43:13.285Z,2.78
2022-08-03T03:45:43.694Z,2.78
2022-08-03T03:48:10.308Z,2.55
2022-08-03T03:50:37.733Z,2.97
2022-08-03T03:53:04.711Z,2.75
2022-08-03T03:55:31.726Z,2.27
2022-08-03T03:57:58.361Z,2.85
2022-08-03T04:00:25.069Z,2.08
2022-08-03T04:02:51.631Z,3.20
2022-08-03T04:05:36.828Z,2.30
2022-08-03T04:08:26.086Z,2.50
2022-08-03T04:11:14.309Z,2.83
2022-08-03T04:13:51.458Z,2.85
2022-08-03T04:16:28.989Z,3.47
2022-08-03T04:19:00.911Z,2.42
2022-08-03T04:21:30.342Z,2.47
2022-08-03T04:24:03.567Z,2.90
2022-08-03T04:26:33.667Z,2.60
2022-08-03T04:29:00.873Z,2.75
2022-08-03T04:31:28.208Z,2.40
2022-08-03T04:33:55.475Z,2.85
2022-08-03T04:36:25.806Z,2.97
2022-08-03T04:39:05.312Z,2.95
2022-08-03T04:41:33.743Z,2.33
2022-08-03T04:44:23.460Z,2.63
2022-08-03T04:47:00.561Z,3.25
2022-08-03T04:49:28.615Z,3.00
2022-08-03T04:51:55.369Z,3.20
2022-08-03T04:54:22.434Z,2.42
2022-08-03T04:56:49.399Z,4.03
2022-08-03T04:59:18.189Z,3.05
2022-08-03T05:01:44.889Z,2.85
2022-08-03T05:04:12.350Z,2.42
2022-08-03T05:06:47.809Z,2.92
2022-08-03T05:09:14.958Z,3.08
2022-08-03T05:12:01.591Z,2.80
2022-08-03T05:14:28.451Z,3.40
2022-08-03T05:16:55.023Z,3.00
2022-08-03T05:19:24.310Z,3.17
2022-08-03T05:21:52.708Z,3.08
2022-08-03T05:24:19.531Z,3.10
2022-08-03T05:26:46.027Z,3.17
2022-08-03T05:29:15.049Z,3.47
2022-08-03T05:31:41.633Z,2.78
2022-08-03T05:34:08.206Z,3.33
2022-08-03T05:36:34.776Z,2.78
2022-08-03T05:39:02.964Z,2.53
2022-08-03T05:41:36.610Z,2.85
2022-08-03T05:44:04.986Z,2.47
2022-08-03T05:46:31.758Z,2.85
2022-08-03T05:48:58.318Z,2.92
2022-08-03T05:51:24.918Z,3.15
2022-08-03T05:53:52.250Z,3.28
2022-08-03T05:56:23.537Z,2.95
2022-08-03T05:58:52.685Z,3.30
2022-08-03T06:01:22.126Z,3.03
2022-08-03T06:03:49.959Z,3.13
2022-08-03T06:06:17.063Z,3.88
2022-08-03T06:08:45.168Z,4.10
2022-08-03T06:11:13.426Z,3.17
2022-08-03T06:13:40.120Z,3.30
2022-08-03T06:16:07.392Z,2.72
2022-08-03T06:18:34.725Z,3.30
2022-08-03T06:21:14.298Z,3.25
2022-08-03T06:23:54.791Z,3.40
2022-08-03T06:26:23.569Z,3.63
2022-08-03T06:28:52.526Z,2.90
2022-08-03T06:31:25.914Z,3.22
2022-08-03T06:34:33.027Z,2.92
2022-08-03T06:36:40.159Z,3.22
2022-08-03T06:39:06.643Z,3.25
2022-08-03T06:41:37.521Z,3.33
2022-08-03T06:44:06.997Z,3.00
2022-08-03T06:46:33.495Z,3.10
2022-08-03T06:49:00.546Z,3.15
2022-08-03T06:52:03.302Z,3.22
2022-08-03T06:54:15.926Z,3.60
2022-08-03T06:56:42.470Z,2.80
2022-08-03T06:59:08.972Z,4.15
2022-08-03T07:01:55.564Z,3.00
2022-08-03T07:04:22.293Z,2.70
2022-08-03T07:06:48.855Z,2.73
2022-08-03T07:09:15.891Z,2.83
2022-08-03T07:11:42.432Z,2.80
2022-08-03T07:14:11.795Z,2.50
2022-08-03T07:16:38.773Z,3.13
2022-08-03T07:19:05.422Z,3.60
2022-08-03T07:21:32.077Z,3.30
2022-08-03T07:24:00.935Z,3.08
2022-08-03T07:26:27.485Z,4.15
2022-08-03T07:28:56.899Z,3.50
2022-08-03T07:31:23.692Z,3.70
2022-08-03T07:33:50.951Z,2.95
2022-08-03T07:36:17.535Z,3.75
2022-08-03T07:38:44.481Z,3.95
2022-08-03T07:41:11.631Z,3.35
2022-08-03T07:43:38.728Z,3.30
2022-08-03T07:46:05.689Z,2.80
2022-08-03T07:48:32.784Z,2.95
2022-08-03T07:51:03.390Z,3.08
2022-08-03T07:53:32.232Z,2.92
2022-08-03T07:56:05.749Z,2.60
2022-08-03T07:58:38.949Z,2.30
2022-08-03T08:01:05.583Z,3.95
2022-08-03T08:03:52.175Z,2.78
2022-08-03T08:08:48.388Z,2.97
2022-08-03T08:13:42.236Z,2.90
2022-08-03T08:16:10.923Z,2.95
2022-08-03T08:18:38.792Z,2.90
2022-08-03T08:21:05.382Z,3.13
2022-08-03T08:23:42.670Z,3.55
2022-08-03T08:26:11.263Z,3.28
2022-08-03T08:28:38.260Z,3.20
2022-08-03T08:31:07.875Z,3.03
2022-08-03T08:34:03.170Z,3.40
2022-08-03T08:36:23.988Z,3.63
2022-08-03T08:38:50.526Z,3.88
2022-08-03T08:41:17.178Z,3.03
2022-08-03T08:46:13.170Z,3.22
2022-08-03T08:48:50.928Z,3.58
2022-08-03T08:51:20.400Z,3.10
2022-08-03T08:53:51.619Z,3.42
2022-08-03T08:56:20.448Z,3.00
2022-08-03T08:59:01.190Z,3.28
2022-08-03T09:01:30.835Z,3.22
2022-08-03T09:03:57.439Z,3.20
2022-08-03T09:06:24.134Z,3.05
2022-08-03T09:08:53.387Z,3.10
2022-08-03T09:12:00.943Z,3.08
2022-08-03T09:14:11.339Z,3.28
2022-08-03T09:17:01.516Z,4.18
2022-08-03T09:19:29.635Z,2.97
2022-08-03T09:22:08.447Z,3.67
2022-08-03T09:24:41.570Z,2.90
2022-08-03T09:27:17.194Z,3.30
2022-08-03T09:29:48.689Z,2.45
2022-08-03T09:32:15.687Z,3.28
2022-08-03T09:37:19.101Z,3.35
2022-08-03T09:39:47.552Z,2.73
2022-08-03T09:42:23.549Z,3.08
2022-08-03T09:44:54.071Z,3.00
2022-08-03T09:47:36.747Z,2.97
2022-08-03T09:50:12.031Z,3.47
2022-08-03T09:52:52.246Z,3.83
2022-08-03T09:56:33.060Z,3.17
2022-08-03T09:58:11.744Z,3.28
2022-08-03T10:00:57.527Z,2.88
2022-08-03T10:03:25.765Z,3.93
2022-08-03T10:06:02.683Z,3.67
2022-08-03T10:08:31.955Z,3.30
2022-08-03T10:11:01.456Z,2.38
2022-08-03T10:13:28.345Z,2.70
2022-08-03T10:16:23.118Z,3.13
2022-08-03T10:18:41.913Z,3.83
2022-08-03T10:21:10.677Z,2.85
2022-08-03T10:23:41.756Z,2.65
2022-08-03T10:26:13.108Z,2.92
2022-08-03T10:28:46.197Z,3.38
2022-08-03T10:31:16.206Z,2.75
2022-08-03T10:33:50.058Z,2.70
2022-08-03T10:36:23.338Z,3.42
2022-08-03T10:38:55.309Z,3.03
2022-08-03T10:41:25.146Z,2.92
2022-08-03T10:44:18.413Z,2.72
2022-08-03T10:46:46.799Z,3.00
2022-08-03T10:49:33.560Z,3.60
2022-08-03T10:52:06.595Z,3.38
2022-08-03T10:55:01.146Z,2.72
2022-08-03T10:57:49.614Z,2.75
2022-08-03T11:00:24.996Z,3.70
2022-08-03T11:03:11.431Z,2.40
2022-08-03T11:05:41.987Z,2.80
2022-08-03T11:08:25.738Z,2.55
2022-08-03T11:11:02.925Z,2.72
2022-08-03T11:13:33.585Z,2.60
2022-08-03T11:16:06.266Z,2.38
2022-08-03T11:18:35.146Z,2.33
2022-08-03T11:21:04.978Z,2.85
2022-08-03T11:24:02.759Z,2.50
2022-08-03T11:26:32.883Z,2.03
2022-08-03T11:29:32.016Z,2.72
2022-08-03T11:31:58.788Z,2.40
2022-08-03T11:37:22.978Z,2.25
2022-08-03T11:39:52.033Z,1.90
2022-08-03T11:42:24.718Z,2.60
2022-08-03T11:44:55.587Z,2.17
2022-08-03T11:47:23.216Z,2.72
2022-08-03T11:49:54.315Z,2.35
2022-08-03T11:52:26.971Z,2.75
2022-08-03T11:54:56.684Z,2.28
2022-08-03T11:59:14.247Z,2.15
2022-08-03T12:00:30.433Z,2.22
2022-08-03T12:03:06.254Z,2.58
2022-08-03T12:05:42.361Z,2.38
2022-08-03T12:08:26.943Z,2.45
2022-08-03T12:10:54.798Z,2.72
2022-08-03T12:14:35.673Z,1.85
2022-08-03T12:16:09.899Z,2.08
2022-08-03T12:18:37.001Z,2.15
2022-08-03T12:21:06.985Z,2.08
2022-08-03T12:23:37.572Z,1.88
2022-08-03T12:26:09.861Z,2.58
2022-08-03T12:28:49.586Z,2.20
2022-08-03T12:31:17.743Z,2.05
2022-08-03T12:34:03.701Z,2.25
2022-08-03T12:36:33.467Z,2.15
2022-08-03T12:39:03.186Z,1.60
2022-08-03T12:41:31.773Z,2.30
2022-08-03T12:43:58.813Z,2.53
2022-08-03T12:46:31.230Z,2.67
2022-08-03T12:48:59.772Z,2.10
2022-08-03T12:51:27.557Z,2.20
2022-08-03T12:53:58.755Z,2.13
2022-08-03T12:56:25.947Z,1.70
2022-08-03T12:58:53.363Z,1.77
2022-08-03T13:01:22.891Z,1.58
2022-08-03T13:03:52.897Z,1.25
2022-08-03T13:06:26.739Z,1.77
2022-08-03T13:09:07.675Z,1.50
2022-08-03T13:11:56.007Z,2.10
2022-08-03T13:14:23.957Z,1.83
2022-08-03T13:16:51.062Z,1.67
2022-08-03T13:19:20.846Z,1.80
2022-08-03T13:21:53.783Z,1.60
2022-08-03T13:24:31.961Z,1.98
2022-08-03T13:26:59.765Z,1.77
2022-08-03T13:29:26.467Z,1.33
2022-08-03T13:34:23.645Z,1.60
2022-08-03T13:37:09.208Z,1.90
2022-08-03T13:39:57.475Z,1.47
2022-08-03T13:42:23.786Z,2.10
2022-08-03T13:44:50.865Z,2.65
2022-08-03T13:47:17.687Z,1.70
2022-08-03T13:49:56.955Z,1.73
2022-08-03T13:52:28.250Z,1.60
2022-08-03T13:54:55.096Z,1.83
2022-08-03T13:58:11.822Z,2.22
2022-08-03T14:00:09.899Z,1.80
2022-08-03T14:02:37.754Z,2.35
2022-08-03T14:05:04.879Z,1.85
2022-08-03T14:07:31.615Z,1.58
2022-08-03T14:12:25.352Z,1.75
2022-08-03T14:14:57.003Z,1.73
2022-08-03T14:17:25.625Z,1.55
2022-08-03T14:19:54.018Z,1.80
2022-08-03T14:22:21.802Z,2.00
2022-08-03T14:24:49.424Z,2.10
2022-08-03T14:27:16.473Z,2.10
2022-08-03T14:29:45.697Z,1.58
2022-08-03T14:32:13.415Z,2.03
2022-08-03T14:34:40.539Z,1.88
2022-08-03T14:37:07.283Z,1.73
2022-08-03T14:42:20.802Z,1.83
2022-08-03T14:44:49.708Z,1.65
2022-08-03T14:47:16.926Z,2.13
2022-08-03T14:50:31.739Z,1.98
2022-08-03T14:52:33.774Z,1.75
2022-08-03T14:55:03.024Z,1.52
2022-08-03T14:57:31.893Z,1.85
2022-08-03T14:59:58.500Z,1.73
2022-08-03T15:02:30.984Z,1.58
2022-08-03T15:04:57.559Z,1.50
2022-08-03T15:07:24.054Z,1.27
2022-08-03T15:09:50.613Z,1.67
2022-08-03T15:12:17.749Z,1.50
2022-08-03T15:14:44.278Z,1.70
2022-08-03T15:17:13.317Z,1.42
2022-08-03T15:20:03.303Z,1.65
2022-08-03T15:22:34.554Z,1.33
2022-08-03T15:26:03.957Z,1.33
2022-08-03T15:28:04.094Z,1.45
2022-08-03T15:30:36.056Z,1.67
2022-08-03T15:33:03.540Z,1.30
2022-08-03T15:35:33.063Z,1.65
2022-08-03T15:37:59.919Z,1.73
2022-08-03T15:42:52.917Z,2.00
2022-08-03T15:45:20.509Z,1.30
2022-08-03T15:47:47.166Z,1.50
2022-08-03T15:50:13.898Z,1.50
2022-08-03T15:52:40.980Z,1.88
2022-08-03T15:55:08.450Z,1.90
2022-08-03T15:59:03.142Z,1.88
2022-08-03T16:00:33.352Z,1.13
2022-08-03T16:03:01.193Z,1.48
2022-08-03T16:05:28.399Z,1.52
2022-08-03T16:08:03.554Z,1.45
2022-08-03T16:10:34.466Z,1.10
2022-08-03T16:13:01.384Z,0.98
2022-08-03T16:15:28.218Z,1.73
2022-08-03T16:17:55.239Z,1.38
2022-08-03T16:20:34.262Z,1.40
2022-08-03T16:23:11.599Z,1.33
2022-08-03T16:25:44.437Z,1.25
2022-08-03T16:30:47.120Z,1.40
2022-08-03T16:33:17.425Z,1.73
2022-08-03T16:35:45.374Z,1.48
2022-08-03T16:38:18.145Z,1.38
2022-08-03T16:40:47.219Z,1.38
2022-08-03T16:43:17.913Z,1.25
2022-08-03T16:45:46.790Z,1.45
2022-08-03T16:48:14.237Z,1.58
2022-08-03T16:50:41.451Z,1.27
2022-08-03T16:53:09.614Z,1.30
2022-08-03T16:55:43.607Z,1.80
2022-08-03T16:58:34.825Z,1.77
2022-08-03T17:01:20.934Z,1.35
2022-08-03T17:04:01.165Z,1.73
2022-08-03T17:06:33.794Z,1.60
2022-08-03T17:09:01.356Z,1.40
2022-08-03T17:11:29.714Z,1.48
2022-08-03T17:13:58.818Z,1.45
2022-08-03T17:16:28.356Z,1.60
2022-08-03T17:18:57.474Z,1.75
2022-08-03T17:21:32.415Z,1.50
2022-08-03T17:24:12.526Z,1.70
2022-08-03T17:26:46.325Z,2.47
2022-08-03T17:29:23.192Z,1.52
2022-08-03T17:31:53.073Z,2.20
2022-08-03T17:34:20.877Z,2.78
2022-08-03T17:37:27.160Z,1.88
2022-08-03T17:39:58.671Z,2.30
2022-08-03T17:42:30.214Z,1.38
2022-08-03T17:45:02.491Z,1.33
2022-08-03T17:47:42.015Z,1.58
2022-08-03T17:50:28.021Z,1.40
2022-08-03T17:53:07.223Z,1.35
2022-08-03T17:55:57.277Z,1.50
2022-08-03T17:58:55.041Z,1.42
2022-08-03T18:01:59.624Z,1.63
2022-08-03T18:04:38.076Z,1.42
2022-08-03T18:07:11.725Z,2.00
2022-08-03T18:10:03.899Z,1.50
2022-08-03T18:12:37.946Z,1.40
2022-08-03T18:15:08.346Z,1.20
2022-08-03T18:17:55.736Z,1.58
2022-08-03T18:20:34.567Z,1.88
2022-08-03T18:23:05.791Z,1.95
2022-08-03T18:25:45.381Z,1.85
2022-08-03T18:28:18.703Z,1.73
2022-08-03T18:30:53.654Z,1.75
2022-08-03T18:34:17.025Z,1.60
2022-08-03T18:36:29.437Z,1.70
2022-08-03T18:38:59.372Z,1.65
2022-08-03T18:41:32.603Z,1.70
2022-08-03T18:44:08.469Z,1.63
2022-08-03T18:47:02.920Z,1.48
2022-08-03T18:49:36.762Z,1.55
2022-08-03T18:52:17.702Z,1.60
2022-08-03T18:55:09.379Z,1.83
2022-08-03T18:57:52.164Z,1.40
2022-08-03T19:00:24.300Z,2.33
2022-08-03T19:03:12.230Z,1.63
2022-08-03T19:06:02.703Z,1.52
2022-08-03T19:08:54.309Z,1.48
2022-08-03T19:12:12.617Z,1.65
2022-08-03T19:14:39.329Z,1.50
2022-08-03T19:17:11.604Z,1.30
2022-08-03T19:19:44.944Z,1.45
2022-08-03T19:22:15.926Z,1.92
2022-08-03T19:24:45.364Z,1.30
2022-08-03T19:27:13.236Z,1.48
2022-08-03T19:29:59.583Z,2.17
2022-08-03T19:32:32.294Z,2.08
2022-08-03T19:35:04.713Z,2.10
2022-08-03T19:37:40.366Z,1.83
2022-08-03T19:42:44.557Z,1.38
2022-08-03T19:45:14.587Z,1.67
2022-08-03T19:48:12.856Z,1.52
2022-08-03T19:50:44.578Z,1.52
2022-08-03T19:53:13.122Z,1.88
2022-08-03T19:55:48.873Z,1.35
2022-08-03T19:58:28.371Z,2.00
2022-08-03T20:00:55.869Z,2.17
2022-08-03T20:05:55.056Z,1.95
2022-08-03T20:08:27.285Z,1.65
2022-08-03T20:10:54.845Z,1.90
2022-08-03T20:13:21.905Z,1.80
2022-08-03T20:15:55.007Z,2.50
2022-08-03T20:18:21.591Z,2.03
2022-08-03T20:20:52.411Z,1.80
2022-08-03T20:23:20.132Z,1.95
2022-08-03T20:25:59.331Z,1.85
2022-08-03T20:28:50.136Z,1.70
2022-08-03T20:31:18.035Z,2.15
2022-08-03T20:36:17.810Z,1.77
2022-08-03T20:38:46.987Z,1.90
2022-08-03T20:41:15.992Z,2.15
2022-08-03T20:43:42.799Z,1.88
2022-08-03T20:46:33.831Z,1.70
2022-08-03T20:48:58.929Z,1.98
2022-08-03T20:51:49.991Z,2.15
2022-08-03T20:54:28.702Z,1.90
2022-08-03T20:56:56.879Z,1.60
2022-08-03T20:59:23.632Z,2.20
2022-08-03T21:04:21.659Z,1.88
2022-08-03T21:07:00.706Z,2.42
2022-08-03T21:09:39.969Z,1.90
2022-08-03T21:12:17.822Z,1.92
2022-08-03T21:14:58.454Z,1.75
2022-08-03T21:17:40.139Z,1.52
2022-08-03T21:20:10.211Z,1.40
2022-08-03T21:22:45.534Z,2.00
2022-08-03T21:25:15.256Z,1.50
2022-08-03T21:27:42.095Z,1.90
2022-08-03T21:30:10.174Z,2.22
2022-08-03T21:32:40.469Z,2.70
2022-08-03T21:35:13.102Z,2.30
2022-08-03T21:37:43.543Z,1.98
2022-08-03T21:40:14.412Z,1.92
2022-08-03T21:42:42.929Z,1.80
2022-08-03T21:45:16.855Z,1.77
2022-08-03T21:47:44.114Z,1.70
2022-08-03T21:50:12.565Z,1.88
2022-08-03T21:52:47.335Z,1.95
2022-08-03T21:55:18.585Z,1.70
2022-08-03T21:57:53.133Z,2.10
2022-08-03T22:00:21.601Z,2.03
2022-08-03T22:02:54.861Z,2.22
2022-08-03T22:05:42.608Z,2.08
2022-08-03T22:08:11.278Z,2.03
2022-08-03T22:10:38.129Z,2.30
2022-08-03T22:13:04.736Z,1.92
2022-08-03T22:15:32.588Z,1.90
2022-08-03T22:18:04.535Z,2.10
2022-08-03T22:20:31.447Z,1.63
2022-08-03T22:23:02.527Z,2.10
2022-08-03T22:25:32.613Z,2.17
2022-08-03T22:28:09.421Z,2.03
2022-08-03T22:30:37.001Z,2.97
2022-08-03T22:33:11.103Z,1.67
2022-08-03T22:35:48.065Z,2.10
2022-08-03T22:38:16.129Z,2.45
2022-08-03T22:40:42.879Z,2.10
2022-08-03T22:43:12.046Z,1.75
2022-08-03T22:46:07.694Z,2.40
2022-08-03T22:48:26.610Z,2.00
2022-08-03T22:50:56.638Z,1.85
2022-08-03T22:53:23.355Z,1.98
2022-08-03T22:55:52.487Z,2.47
2022-08-03T22:58:20.937Z,2.00
2022-08-03T23:00:58.124Z,2.13
2022-08-03T23:04:00.228Z,2.08
2022-08-03T23:06:16.839Z,2.42
2022-08-03T23:08:48.604Z,2.40
2022-08-03T23:11:18.676Z,2.42
2022-08-03T23:13:49.615Z,2.40
2022-08-03T23:16:28.555Z,2.40
2022-08-03T23:18:57.918Z,2.60
2022-08-03T23:21:59.922Z,2.58
2022-08-03T23:24:29.637Z,2.47
2022-08-03T23:26:57.271Z,2.80
2022-08-03T23:29:23.824Z,2.83
2022-08-03T23:31:56.316Z,2.97
2022-08-03T23:34:44.523Z,3.13
2022-08-03T23:37:14.014Z,2.90
2022-08-03T23:39:44.618Z,2.88
2022-08-03T23:42:15.101Z,2.80
2022-08-03T23:44:45.713Z,3.10
2022-08-03T23:47:13.810Z,3.03
2022-08-03T23:49:40.401Z,3.78
2022-08-03T23:52:15.444Z,3.13
2022-08-03T23:54:59.995Z,3.10
2022-08-03T23:57:40.773Z,2.92
